createdAt,value
2018-12-21T00:00:43.579Z,1003.52
2018-12-21T00:01:43.566Z,1003.48
2018-12-21T00:02:44.554Z,1003.53
2018-12-21T00:03:43.532Z,1003.48
2018-12-21T00:04:43.520Z,1003.47
2018-12-21T00:05:43.543Z,1003.50
2018-12-21T00:06:43.498Z,1003.45
2018-12-21T00:07:43.492Z,1003.40
2018-12-21T00:08:43.476Z,1003.36
2018-12-21T00:09:43.465Z,1003.40
2018-12-21T00:10:43.455Z,1003.36
2018-12-21T00:11:43.474Z,1003.38
2018-12-21T00:12:43.431Z,1003.36
2018-12-21T00:13:43.427Z,1003.39
2018-12-21T00:14:43.409Z,1003.36
2018-12-21T00:15:43.397Z,1003.36
2018-12-21T00:16:43.389Z,1003.29
2018-12-21T00:17:43.408Z,1003.33
2018-12-21T00:18:43.365Z,1003.29
2018-12-21T00:19:43.361Z,1003.29
2018-12-21T00:20:43.341Z,1003.27
2018-12-21T00:21:43.333Z,1003.26
2018-12-21T00:22:43.320Z,1003.23
2018-12-21T00:23:43.342Z,1003.25
2018-12-21T00:24:43.297Z,1003.21
2018-12-21T00:25:43.290Z,1003.20
2018-12-21T00:26:43.276Z,1003.23
2018-12-21T00:27:43.264Z,1003.15
2018-12-21T00:28:43.253Z,1003.15
2018-12-21T00:29:43.277Z,1003.07
2018-12-21T00:30:43.228Z,1003.10
2018-12-21T00:31:43.229Z,1003.11
2018-12-21T00:32:43.211Z,1003.08
2018-12-21T00:33:43.197Z,1003.07
2018-12-21T00:34:43.187Z,1003.06
2018-12-21T00:35:43.186Z,1003.07
2018-12-21T00:36:43.162Z,1003.10
2018-12-21T00:37:43.159Z,1003.08
2018-12-21T00:38:43.143Z,1003.06
2018-12-21T00:39:43.142Z,1003.08
2018-12-21T00:40:43.181Z,1003.07
2018-12-21T00:41:43.109Z,1003.02
2018-12-21T00:42:43.095Z,1002.98
2018-12-21T00:43:43.092Z,1003.00
2018-12-21T00:44:43.115Z,1003.04
2018-12-21T00:45:43.062Z,1003.01
2018-12-21T00:46:43.057Z,1003.04
2018-12-21T00:47:43.041Z,1003.05
2018-12-21T00:48:43.028Z,1003.05
2018-12-21T00:49:43.016Z,1003.07
2018-12-21T00:50:43.046Z,1003.07
2018-12-21T00:51:42.995Z,1003.04
2018-12-21T00:52:42.985Z,1003.04
2018-12-21T00:53:42.973Z,1003.05
2018-12-21T00:54:42.962Z,1003.04
2018-12-21T00:55:42.951Z,1003.05
2018-12-21T00:56:42.983Z,1003.08
2018-12-21T00:57:42.929Z,1002.96
2018-12-21T00:58:42.916Z,1002.96
2018-12-21T00:59:42.908Z,1002.86
2018-12-21T01:00:42.895Z,1002.98
2018-12-21T01:01:42.883Z,1003.01
2018-12-21T01:02:42.894Z,1002.98
2018-12-21T01:03:42.861Z,1003.02
2018-12-21T01:04:42.850Z,1002.99
2018-12-21T01:05:42.839Z,1002.99
2018-12-21T01:06:42.828Z,1003.02
2018-12-21T01:07:42.831Z,1003.04
2018-12-21T01:08:42.811Z,1003.00
2018-12-21T01:09:42.794Z,1002.99
2018-12-21T01:10:42.782Z,1003.01
2018-12-21T01:11:42.772Z,1003.00
2018-12-21T01:12:42.792Z,1002.98
2018-12-21T01:13:42.753Z,1003.00
2018-12-21T01:14:42.743Z,1002.95
2018-12-21T01:15:42.726Z,1002.99
2018-12-21T01:16:42.716Z,1003.00
2018-12-21T01:17:42.703Z,1003.01
2018-12-21T01:18:42.729Z,1003.05
2018-12-21T01:19:42.682Z,1003.03
2018-12-21T01:20:42.677Z,1003.01
2018-12-21T01:21:42.660Z,1003.06
2018-12-21T01:22:42.648Z,1003.03
2018-12-21T01:23:42.638Z,1003.06
2018-12-21T01:24:42.641Z,1003.05
2018-12-21T01:25:42.614Z,1003.01
2018-12-21T01:26:42.609Z,1003.02
2018-12-21T01:27:42.606Z,1003.08
2018-12-21T01:28:42.581Z,1003.07
2018-12-21T01:29:42.585Z,1003.09
2018-12-21T01:30:42.560Z,1003.13
2018-12-21T01:31:42.547Z,1003.08
2018-12-21T01:32:42.556Z,1003.08
2018-12-21T01:33:42.525Z,1003.03
2018-12-21T01:34:42.513Z,1003.00
2018-12-21T01:35:42.504Z,1003.01
2018-12-21T01:36:42.529Z,1003.02
2018-12-21T01:37:42.481Z,1003.05
2018-12-21T01:38:42.476Z,1003.05
2018-12-21T01:39:42.457Z,1003.05
2018-12-21T01:40:42.446Z,1003.04
2018-12-21T01:41:42.437Z,1003.04
2018-12-21T01:42:42.457Z,1002.97
2018-12-21T01:43:42.418Z,1003.04
2018-12-21T01:44:42.408Z,1003.04
2018-12-21T01:45:42.392Z,1002.98
2018-12-21T01:46:42.379Z,1002.98
2018-12-21T01:47:42.369Z,1002.96
2018-12-21T01:48:42.393Z,1003.01
2018-12-21T01:49:42.355Z,1003.00
2018-12-21T01:50:42.343Z,1002.99
2018-12-21T01:51:47.124Z,1003.00
2018-12-21T01:52:43.311Z,1003.02
2018-12-21T01:53:42.301Z,1003.03
2018-12-21T01:54:42.313Z,1003.06
2018-12-21T01:55:42.279Z,1003.00
2018-12-21T01:56:42.278Z,1002.98
2018-12-21T01:57:42.260Z,1003.01
2018-12-21T01:58:42.248Z,1002.99
2018-12-21T01:59:42.235Z,1002.96
2018-12-21T02:00:42.256Z,1003.01
2018-12-21T02:01:42.212Z,1002.99
2018-12-21T02:02:42.202Z,1002.99
2018-12-21T02:03:42.200Z,1002.94
2018-12-21T02:04:42.178Z,1002.96
2018-12-21T02:05:42.169Z,1002.92
2018-12-21T02:06:42.168Z,1002.93
2018-12-21T02:07:42.146Z,1002.95
2018-12-21T02:08:42.135Z,1002.93
2018-12-21T02:09:42.128Z,1002.85
2018-12-21T02:10:42.119Z,1002.84
2018-12-21T02:11:42.123Z,1002.92
2018-12-21T02:12:42.093Z,1002.90
2018-12-21T02:13:42.079Z,1002.90
2018-12-21T02:14:42.068Z,1002.88
2018-12-21T02:15:42.058Z,1002.86
2018-12-21T02:16:42.053Z,1002.84
2018-12-21T02:17:42.070Z,1002.86
2018-12-21T02:18:42.024Z,1002.83
2018-12-21T02:19:42.013Z,1002.88
2018-12-21T02:20:42.000Z,1002.85
2018-12-21T02:21:41.990Z,1002.81
2018-12-21T02:22:41.984Z,1002.79
2018-12-21T02:23:42.002Z,1002.81
2018-12-21T02:24:41.954Z,1002.80
2018-12-21T02:25:41.944Z,1002.83
2018-12-21T02:26:41.931Z,1002.82
2018-12-21T02:27:41.925Z,1002.84
2018-12-21T02:28:41.913Z,1002.81
2018-12-21T02:29:41.918Z,1002.82
2018-12-21T02:30:41.890Z,1002.75
2018-12-21T02:31:41.879Z,1002.76
2018-12-21T02:32:41.867Z,1002.75
2018-12-21T02:33:41.855Z,1002.73
2018-12-21T02:34:41.877Z,1002.75
2018-12-21T02:35:41.841Z,1002.80
2018-12-21T02:36:41.821Z,1002.77
2018-12-21T02:37:41.809Z,1002.81
2018-12-21T02:38:41.801Z,1002.86
2018-12-21T02:39:41.787Z,1002.84
2018-12-21T02:40:41.790Z,1002.88
2018-12-21T02:41:41.770Z,1002.88
2018-12-21T02:42:41.754Z,1002.90
2018-12-21T02:43:41.744Z,1002.90
2018-12-21T02:44:41.762Z,1002.94
2018-12-21T02:45:41.723Z,1002.94
2018-12-21T02:46:41.709Z,1002.97
2018-12-21T02:47:41.706Z,1002.97
2018-12-21T02:48:41.688Z,1002.91
2018-12-21T02:49:41.677Z,1002.90
2018-12-21T02:50:41.687Z,1002.84
2018-12-21T02:51:41.654Z,1002.82
2018-12-21T02:52:41.644Z,1002.78
2018-12-21T02:53:41.637Z,1002.78
2018-12-21T02:54:41.620Z,1002.75
2018-12-21T02:55:41.616Z,1002.69
2018-12-21T02:56:41.620Z,1002.63
2018-12-21T02:57:41.587Z,1002.72
2018-12-21T02:58:41.576Z,1002.71
2018-12-21T02:59:41.657Z,1002.67
2018-12-21T03:00:41.553Z,1002.65
2018-12-21T03:01:41.548Z,1002.63
2018-12-21T03:02:41.552Z,1002.61
2018-12-21T03:03:41.521Z,1002.53
2018-12-21T03:04:41.510Z,1002.47
2018-12-21T03:05:41.505Z,1002.48
2018-12-21T03:06:41.486Z,1002.41
2018-12-21T03:07:41.475Z,1002.43
2018-12-21T03:08:41.486Z,1002.43
2018-12-21T03:09:41.453Z,1002.40
2018-12-21T03:10:41.442Z,1002.42
2018-12-21T03:11:41.436Z,1002.38
2018-12-21T03:12:41.419Z,1002.34
2018-12-21T03:13:41.410Z,1002.36
2018-12-21T03:14:41.418Z,1002.34
2018-12-21T03:15:41.388Z,1002.34
2018-12-21T03:16:41.373Z,1002.36
2018-12-21T03:17:41.376Z,1002.39
2018-12-21T03:18:41.352Z,1002.33
2018-12-21T03:19:41.342Z,1002.35
2018-12-21T03:20:41.342Z,1002.34
2018-12-21T03:21:41.322Z,1002.34
2018-12-21T03:22:41.325Z,1002.36
2018-12-21T03:23:41.299Z,1002.33
2018-12-21T03:24:41.323Z,1002.30
2018-12-21T03:25:41.274Z,1002.26
2018-12-21T03:26:41.262Z,1002.26
2018-12-21T03:27:41.260Z,1002.23
2018-12-21T03:28:41.242Z,1002.26
2018-12-21T03:29:41.234Z,1002.24
2018-12-21T03:30:41.238Z,1002.26
2018-12-21T03:31:41.209Z,1002.23
2018-12-21T03:32:41.196Z,1002.20
2018-12-21T03:33:41.186Z,1002.15
2018-12-21T03:34:41.173Z,1002.19
2018-12-21T03:35:41.216Z,1002.17
2018-12-21T03:36:41.153Z,1002.13
2018-12-21T03:37:41.138Z,1002.11
2018-12-21T03:38:41.128Z,1002.13
2018-12-21T03:39:41.118Z,1002.15
2018-12-21T03:40:41.105Z,1002.11
2018-12-21T03:41:41.133Z,1002.14
2018-12-21T03:42:41.084Z,1002.09
2018-12-21T03:43:41.072Z,1002.10
2018-12-21T03:44:41.061Z,1002.03
2018-12-21T03:45:41.051Z,1002.05
2018-12-21T03:46:41.037Z,1001.99
2018-12-21T03:47:41.064Z,1001.97
2018-12-21T03:48:41.025Z,1001.93
2018-12-21T03:49:41.149Z,1001.85
2018-12-21T03:50:40.993Z,1001.91
2018-12-21T03:51:40.983Z,1001.87
2018-12-21T03:52:40.974Z,1001.84
2018-12-21T03:53:40.975Z,1001.82
2018-12-21T03:54:40.972Z,1001.85
2018-12-21T03:55:40.938Z,1001.82
2018-12-21T03:56:40.925Z,1001.80
2018-12-21T03:57:40.916Z,1001.79
2018-12-21T03:58:40.914Z,1001.79
2018-12-21T03:59:40.919Z,1001.78
2018-12-21T04:00:40.891Z,1001.81
2018-12-21T04:01:40.871Z,1001.78
2018-12-21T04:02:40.859Z,1001.71
2018-12-21T04:03:40.847Z,1001.77
2018-12-21T04:04:40.837Z,1001.72
2018-12-21T04:05:40.839Z,1001.64
2018-12-21T04:06:40.821Z,1001.66
2018-12-21T04:07:40.806Z,1001.63
2018-12-21T04:08:40.795Z,1001.65
2018-12-21T04:09:40.783Z,1001.62
2018-12-21T04:10:40.802Z,1001.57
2018-12-21T04:11:40.760Z,1001.52
2018-12-21T04:12:40.754Z,1001.53
2018-12-21T04:13:40.737Z,1001.49
2018-12-21T04:14:40.727Z,1001.48
2018-12-21T04:15:40.715Z,1001.46
2018-12-21T04:16:40.743Z,1001.48
2018-12-21T04:17:40.698Z,1001.46
2018-12-21T04:18:40.685Z,1001.44
2018-12-21T04:19:40.675Z,1001.40
2018-12-21T04:20:40.659Z,1001.38
2018-12-21T04:21:40.649Z,1001.38
2018-12-21T04:22:40.650Z,1001.36
2018-12-21T04:23:40.626Z,1001.34
2018-12-21T04:24:40.649Z,1001.34
2018-12-21T04:25:40.609Z,1001.34
2018-12-21T04:26:40.590Z,1001.27
2018-12-21T04:27:40.581Z,1001.23
2018-12-21T04:28:40.570Z,1001.23
2018-12-21T04:29:40.557Z,1001.22
2018-12-21T04:30:40.579Z,1001.18
2018-12-21T04:31:40.539Z,1001.14
2018-12-21T04:32:40.523Z,1001.14
2018-12-21T04:33:40.512Z,1001.14
2018-12-21T04:34:40.501Z,1001.15
2018-12-21T04:35:40.490Z,1001.14
2018-12-21T04:36:40.500Z,1001.13
2018-12-21T04:37:40.475Z,1001.18
2018-12-21T04:38:40.456Z,1001.15
2018-12-21T04:39:40.444Z,1001.17
2018-12-21T04:40:40.436Z,1001.13
2018-12-21T04:41:40.423Z,1001.09
2018-12-21T04:42:40.437Z,1001.10
2018-12-21T04:43:40.408Z,1001.12
2018-12-21T04:44:40.388Z,1001.13
2018-12-21T04:45:40.472Z,1001.08
2018-12-21T04:46:40.364Z,1001.05
2018-12-21T04:47:40.354Z,1001.01
2018-12-21T04:48:40.365Z,1001.01
2018-12-21T04:49:40.337Z,1001.07
2018-12-21T04:50:40.324Z,1001.08
2018-12-21T04:51:40.308Z,1001.06
2018-12-21T04:52:43.356Z,1001.04
2018-12-21T04:53:40.285Z,1000.99
2018-12-21T04:54:40.300Z,1000.96
2018-12-21T04:55:40.264Z,1000.97
2018-12-21T04:56:40.251Z,1001.03
2018-12-21T04:57:40.242Z,1001.03
2018-12-21T04:58:40.231Z,1000.97
2018-12-21T04:59:40.225Z,1001.03
2018-12-21T05:00:40.241Z,1001.04
2018-12-21T05:01:40.197Z,1001.00
2018-12-21T05:02:40.184Z,1001.03
2018-12-21T05:03:40.174Z,1000.95
2018-12-21T05:04:40.161Z,1001.00
2018-12-21T05:05:40.149Z,1000.85
2018-12-21T05:06:40.152Z,1000.84
2018-12-21T05:07:40.160Z,1000.78
2018-12-21T05:08:40.123Z,1000.83
2018-12-21T05:09:40.242Z,1000.79
2018-12-21T05:10:40.096Z,1000.79
2018-12-21T05:11:40.083Z,1000.72
2018-12-21T05:12:40.071Z,1000.71
2018-12-21T05:13:40.092Z,1000.67
2018-12-21T05:14:40.055Z,1000.69
2018-12-21T05:15:40.040Z,1000.61
2018-12-21T05:16:40.026Z,1000.61
2018-12-21T05:17:40.015Z,1000.60
2018-12-21T05:18:40.003Z,1000.60
2018-12-21T05:19:40.037Z,1000.53
2018-12-21T05:20:39.984Z,1000.45
2018-12-21T05:21:39.970Z,1000.41
2018-12-21T05:22:39.960Z,1000.42
2018-12-21T05:23:39.949Z,1000.42
2018-12-21T05:24:39.937Z,1000.37
2018-12-21T05:25:39.968Z,1000.33
2018-12-21T05:26:39.913Z,1000.34
2018-12-21T05:27:39.904Z,1000.31
2018-12-21T05:28:39.894Z,1000.33
2018-12-21T05:29:39.885Z,1000.27
2018-12-21T05:30:39.871Z,1000.31
2018-12-21T05:31:39.877Z,1000.31
2018-12-21T05:32:39.848Z,1000.33
2018-12-21T05:33:39.837Z,1000.25
2018-12-21T05:34:39.826Z,1000.21
2018-12-21T05:35:39.816Z,1000.23
2018-12-21T05:36:39.843Z,1000.21
2018-12-21T05:37:39.804Z,1000.23
2018-12-21T05:38:39.781Z,1000.16
2018-12-21T05:39:39.773Z,1000.17
2018-12-21T05:40:39.758Z,1000.12
2018-12-21T05:41:39.747Z,1000.11
2018-12-21T05:42:39.812Z,1000.13
2018-12-21T05:43:39.731Z,1000.05
2018-12-21T05:44:39.714Z,999.99
2018-12-21T05:45:39.702Z,1000.04
2018-12-21T05:46:39.689Z,1000.06
2018-12-21T05:47:39.680Z,1000.03
2018-12-21T05:48:39.816Z,1000.02
2018-12-21T05:49:39.659Z,999.96
2018-12-21T05:50:39.650Z,999.95
2018-12-21T05:51:39.643Z,999.95
2018-12-21T05:52:39.623Z,999.94
2018-12-21T05:53:39.613Z,999.91
2018-12-21T05:54:39.616Z,999.88
2018-12-21T05:55:39.589Z,999.91
2018-12-21T05:56:39.578Z,999.83
2018-12-21T05:57:39.573Z,999.87
2018-12-21T05:58:39.588Z,999.88
2018-12-21T05:59:39.545Z,999.83
2018-12-21T06:00:39.534Z,999.86
2018-12-21T06:01:39.522Z,999.83
2018-12-21T06:02:39.512Z,999.81
2018-12-21T06:03:39.505Z,999.82
2018-12-21T06:04:39.520Z,999.84
2018-12-21T06:05:39.480Z,999.79
2018-12-21T06:06:39.466Z,999.78
2018-12-21T06:07:39.457Z,999.75
2018-12-21T06:08:39.445Z,999.76
2018-12-21T06:09:39.441Z,999.73
2018-12-21T06:10:39.433Z,999.76
2018-12-21T06:11:39.411Z,999.71
2018-12-21T06:12:39.398Z,999.72
2018-12-21T06:13:39.391Z,999.66
2018-12-21T06:14:39.390Z,999.68
2018-12-21T06:15:39.395Z,999.69
2018-12-21T06:16:39.353Z,999.66
2018-12-21T06:17:39.343Z,999.69
2018-12-21T06:18:39.331Z,999.62
2018-12-21T06:19:39.351Z,999.65
2018-12-21T06:20:39.310Z,999.62
2018-12-21T06:21:39.304Z,999.56
2018-12-21T06:22:39.286Z,999.55
2018-12-21T06:23:39.276Z,999.55
2018-12-21T06:24:39.265Z,999.56
2018-12-21T06:25:39.304Z,999.53
2018-12-21T06:26:40.770Z,999.53
2018-12-21T06:27:39.241Z,999.50
2018-12-21T06:28:39.219Z,999.45
2018-12-21T06:29:39.211Z,999.45
2018-12-21T06:30:39.198Z,999.44
2018-12-21T06:31:39.206Z,999.45
2018-12-21T06:32:40.137Z,999.46
2018-12-21T06:33:39.173Z,999.45
2018-12-21T06:34:39.153Z,999.37
2018-12-21T06:35:39.139Z,999.35
2018-12-21T06:36:39.129Z,999.33
2018-12-21T06:37:39.131Z,999.29
2018-12-21T06:38:39.107Z,999.29
2018-12-21T06:39:39.117Z,999.29
2018-12-21T06:40:39.117Z,999.23
2018-12-21T06:41:39.074Z,999.22
2018-12-21T06:42:39.063Z,999.21
2018-12-21T06:43:39.052Z,999.17
2018-12-21T06:44:39.039Z,999.18
2018-12-21T06:45:39.036Z,999.21
2018-12-21T06:46:39.030Z,999.17
2018-12-21T06:47:39.007Z,999.17
2018-12-21T06:48:38.998Z,999.20
2018-12-21T06:49:38.991Z,999.16
2018-12-21T06:50:38.973Z,999.13
2018-12-21T06:51:39.004Z,999.09
2018-12-21T06:52:38.949Z,999.09
2018-12-21T06:53:38.938Z,999.10
2018-12-21T06:54:38.986Z,999.06
2018-12-21T06:55:38.917Z,999.06
2018-12-21T06:56:38.905Z,999.03
2018-12-21T06:57:38.912Z,999.03
2018-12-21T06:58:38.884Z,999.01
2018-12-21T06:59:38.873Z,999.01
2018-12-21T07:00:38.898Z,998.96
2018-12-21T07:01:38.848Z,999.00
2018-12-21T07:02:38.840Z,998.98
2018-12-21T07:03:38.831Z,998.98
2018-12-21T07:04:38.816Z,998.99
2018-12-21T07:05:38.808Z,998.93
2018-12-21T07:06:38.803Z,998.93
2018-12-21T07:07:38.782Z,998.92
2018-12-21T07:08:38.783Z,998.89
2018-12-21T07:09:38.766Z,998.83
2018-12-21T07:10:38.747Z,998.89
2018-12-21T07:11:38.736Z,998.85
2018-12-21T07:12:38.727Z,998.80
2018-12-21T07:13:38.735Z,998.81
2018-12-21T07:14:38.703Z,998.77
2018-12-21T07:15:38.698Z,998.76
2018-12-21T07:16:38.678Z,998.70
2018-12-21T07:17:38.672Z,998.69
2018-12-21T07:18:38.658Z,998.69
2018-12-21T07:19:38.679Z,998.69
2018-12-21T07:20:38.634Z,998.67
2018-12-21T07:21:38.628Z,998.68
2018-12-21T07:22:38.619Z,998.66
2018-12-21T07:23:38.600Z,998.73
2018-12-21T07:24:38.589Z,998.66
2018-12-21T07:25:38.590Z,998.69
2018-12-21T07:26:38.589Z,998.67
2018-12-21T07:27:38.562Z,998.62
2018-12-21T07:28:38.599Z,998.60
2018-12-21T07:29:38.536Z,998.63
2018-12-21T07:30:38.522Z,998.59
2018-12-21T07:31:38.510Z,998.53
2018-12-21T07:32:38.519Z,998.49
2018-12-21T07:33:38.494Z,998.53
2018-12-21T07:34:38.621Z,998.48
2018-12-21T07:35:38.466Z,998.46
2018-12-21T07:36:38.452Z,998.41
2018-12-21T07:37:38.441Z,998.42
2018-12-21T07:38:38.430Z,998.35
2018-12-21T07:39:38.426Z,998.35
2018-12-21T07:40:38.436Z,998.35
2018-12-21T07:41:38.397Z,998.35
2018-12-21T07:42:38.385Z,998.34
2018-12-21T07:43:38.374Z,998.32
2018-12-21T07:44:38.364Z,998.33
2018-12-21T07:45:38.356Z,998.38
2018-12-21T07:46:38.354Z,998.30
2018-12-21T07:47:38.334Z,998.31
2018-12-21T07:48:38.316Z,998.27
2018-12-21T07:49:38.306Z,998.25
2018-12-21T07:50:38.295Z,998.21
2018-12-21T07:51:38.303Z,998.17
2018-12-21T07:52:38.272Z,998.08
2018-12-21T07:53:38.263Z,998.09
2018-12-21T07:54:38.250Z,998.05
2018-12-21T07:55:38.237Z,998.08
2018-12-21T07:56:38.241Z,998.04
2018-12-21T07:57:38.223Z,998.03
2018-12-21T07:58:38.228Z,997.97
2018-12-21T07:59:38.193Z,997.98
2018-12-21T08:00:38.182Z,997.93
2018-12-21T08:01:38.173Z,997.91
2018-12-21T08:02:38.160Z,997.90
2018-12-21T08:03:38.151Z,997.91
2018-12-21T08:04:38.179Z,997.97
2018-12-21T08:05:38.126Z,997.94
2018-12-21T08:06:38.113Z,997.87
2018-12-21T08:07:38.103Z,997.88
2018-12-21T08:08:38.092Z,997.88
2018-12-21T08:09:38.083Z,997.87
2018-12-21T08:10:38.091Z,997.85
2018-12-21T08:11:38.061Z,997.84
2018-12-21T08:12:38.083Z,997.85
2018-12-21T08:13:38.036Z,997.83
2018-12-21T08:14:38.024Z,997.83
2018-12-21T08:15:38.013Z,997.86
2018-12-21T08:16:38.006Z,997.87
2018-12-21T08:17:37.990Z,997.94
2018-12-21T08:18:38.003Z,997.88
2018-12-21T08:19:37.970Z,997.85
2018-12-21T08:20:37.958Z,997.79
2018-12-21T08:21:37.948Z,997.72
2018-12-21T08:22:37.947Z,997.64
2018-12-21T08:23:44.220Z,997.64
2018-12-21T08:24:38.946Z,997.64
2018-12-21T08:25:37.901Z,997.61
2018-12-21T08:26:37.895Z,997.61
2018-12-21T08:27:37.882Z,997.67
2018-12-21T08:28:37.870Z,997.65
2018-12-21T08:29:37.865Z,997.64
2018-12-21T08:30:37.857Z,997.60
2018-12-21T08:31:37.836Z,997.58
2018-12-21T08:32:37.824Z,997.59
2018-12-21T08:33:37.812Z,997.55
2018-12-21T08:34:37.801Z,997.57
2018-12-21T08:35:37.819Z,997.59
2018-12-21T08:36:39.359Z,997.58
2018-12-21T08:37:37.767Z,997.53
2018-12-21T08:38:37.757Z,997.55
2018-12-21T08:39:37.745Z,997.50
2018-12-21T08:40:37.735Z,997.50
2018-12-21T08:41:37.775Z,997.47
2018-12-21T08:42:37.712Z,997.50
2018-12-21T08:43:37.702Z,997.49
2018-12-21T08:44:37.688Z,997.47
2018-12-21T08:45:37.676Z,997.39
2018-12-21T08:46:37.665Z,997.33
2018-12-21T08:47:37.693Z,997.35
2018-12-21T08:48:37.645Z,997.34
2018-12-21T08:49:37.631Z,997.34
2018-12-21T08:50:37.622Z,997.33
2018-12-21T08:51:37.610Z,997.26
2018-12-21T08:52:37.601Z,997.21
2018-12-21T08:53:37.602Z,997.19
2018-12-21T08:54:37.577Z,997.15
2018-12-21T08:55:37.567Z,997.17
2018-12-21T08:56:37.554Z,997.19
2018-12-21T08:57:37.544Z,997.21
2018-12-21T08:58:37.544Z,997.20
2018-12-21T08:59:37.527Z,997.16
2018-12-21T09:00:37.533Z,997.09
2018-12-21T09:01:37.498Z,997.06
2018-12-21T09:02:37.488Z,997.04
2018-12-21T09:03:37.476Z,996.97
2018-12-21T09:04:37.465Z,996.99
2018-12-21T09:05:37.459Z,996.91
2018-12-21T09:06:37.472Z,996.80
2018-12-21T09:07:37.432Z,996.87
2018-12-21T09:08:37.420Z,996.84
2018-12-21T09:09:37.409Z,996.91
2018-12-21T09:10:37.397Z,996.95
2018-12-21T09:11:37.391Z,996.95
2018-12-21T09:12:37.411Z,996.94
2018-12-21T09:13:37.364Z,996.91
2018-12-21T09:14:37.352Z,996.94
2018-12-21T09:15:37.344Z,996.84
2018-12-21T09:16:37.376Z,996.81
2018-12-21T09:17:37.327Z,996.81
2018-12-21T09:18:37.337Z,996.80
2018-12-21T09:19:37.296Z,996.79
2018-12-21T09:20:37.286Z,996.72
2018-12-21T09:21:37.274Z,996.74
2018-12-21T09:22:37.262Z,996.65
2018-12-21T09:23:37.258Z,996.68
2018-12-21T09:24:37.264Z,996.64
2018-12-21T09:25:37.230Z,996.64
2018-12-21T09:26:37.217Z,996.64
2018-12-21T09:27:37.207Z,996.53
2018-12-21T09:28:37.197Z,996.53
2018-12-21T09:29:37.188Z,996.46
2018-12-21T09:30:37.196Z,996.47
2018-12-21T09:31:37.687Z,996.43
2018-12-21T09:32:37.150Z,996.46
2018-12-21T09:33:37.138Z,996.45
2018-12-21T09:34:37.130Z,996.43
2018-12-21T09:35:37.121Z,996.44
2018-12-21T09:36:37.118Z,996.38
2018-12-21T09:37:37.103Z,996.43
2018-12-21T09:38:37.084Z,996.39
2018-12-21T09:39:37.074Z,996.37
2018-12-21T09:40:37.060Z,996.35
2018-12-21T09:41:37.088Z,996.26
2018-12-21T09:42:37.037Z,996.24
2018-12-21T09:43:37.027Z,996.23
2018-12-21T09:44:37.016Z,996.10
2018-12-21T09:45:37.005Z,996.09
2018-12-21T09:46:36.992Z,996.07
2018-12-21T09:47:37.020Z,996.01
2018-12-21T09:48:36.970Z,995.98
2018-12-21T09:49:36.961Z,995.94
2018-12-21T09:50:36.948Z,995.95
2018-12-21T09:51:36.937Z,995.94
2018-12-21T09:52:36.927Z,995.97
2018-12-21T09:53:36.944Z,995.93
2018-12-21T09:54:36.904Z,995.86
2018-12-21T09:55:36.896Z,995.82
2018-12-21T09:56:36.881Z,995.80
2018-12-21T09:57:36.873Z,995.76
2018-12-21T09:58:36.859Z,995.76
2018-12-21T09:59:36.871Z,995.71
2018-12-21T10:00:36.836Z,995.72
2018-12-21T10:01:36.826Z,995.69
2018-12-21T10:02:36.815Z,995.61
2018-12-21T10:03:36.803Z,995.54
2018-12-21T10:04:36.932Z,995.47
2018-12-21T10:05:36.791Z,995.41
2018-12-21T10:06:36.768Z,995.41
2018-12-21T10:07:36.758Z,995.34
2018-12-21T10:08:36.747Z,995.34
2018-12-21T10:09:36.736Z,995.32
2018-12-21T10:10:36.749Z,995.33
2018-12-21T10:11:36.718Z,995.30
2018-12-21T10:12:36.702Z,995.28
2018-12-21T10:13:36.690Z,995.24
2018-12-21T10:14:36.680Z,995.17
2018-12-21T10:15:36.669Z,995.14
2018-12-21T10:16:36.680Z,995.16
2018-12-21T10:17:36.652Z,995.12
2018-12-21T10:18:36.635Z,995.04
2018-12-21T10:19:36.624Z,994.97
2018-12-21T10:20:36.611Z,994.93
2018-12-21T10:21:36.603Z,994.78
2018-12-21T10:22:36.622Z,994.81
2018-12-21T10:23:36.585Z,994.74
2018-12-21T10:24:36.567Z,994.69
2018-12-21T10:25:36.652Z,994.66
2018-12-21T10:26:36.546Z,994.61
2018-12-21T10:27:36.534Z,994.56
2018-12-21T10:28:36.535Z,994.50
2018-12-21T10:29:36.545Z,994.46
2018-12-21T10:30:36.500Z,994.43
2018-12-21T10:31:36.488Z,994.38
2018-12-21T10:32:36.478Z,994.37
2018-12-21T10:33:36.467Z,994.24
2018-12-21T10:34:36.456Z,994.19
2018-12-21T10:35:36.483Z,994.15
2018-12-21T10:36:36.431Z,994.13
2018-12-21T10:37:36.419Z,994.10
2018-12-21T10:38:36.410Z,994.10
2018-12-21T10:39:36.398Z,994.05
2018-12-21T10:40:36.385Z,994.03
2018-12-21T10:41:36.403Z,993.98
2018-12-21T10:42:36.364Z,993.98
2018-12-21T10:43:36.352Z,993.92
2018-12-21T10:44:36.343Z,993.89
2018-12-21T10:45:41.563Z,993.89
2018-12-21T10:46:37.354Z,993.82
2018-12-21T10:47:36.317Z,993.85
2018-12-21T10:48:37.487Z,993.77
2018-12-21T10:49:36.289Z,993.77
2018-12-21T10:50:36.276Z,993.65
2018-12-21T10:51:36.263Z,993.69
2018-12-21T10:52:36.272Z,993.61
2018-12-21T10:53:36.260Z,993.67
2018-12-21T10:54:36.238Z,993.59
2018-12-21T10:55:36.216Z,993.54
2018-12-21T10:56:36.223Z,993.57
2018-12-21T10:57:36.200Z,993.57
2018-12-21T10:58:36.189Z,993.50
2018-12-21T10:59:43.219Z,993.47
2018-12-21T11:00:37.166Z,993.47
2018-12-21T11:01:36.165Z,993.41
2018-12-21T11:02:36.140Z,993.37
2018-12-21T11:03:36.134Z,993.35
2018-12-21T11:04:36.127Z,993.32
2018-12-21T11:05:36.107Z,993.30
2018-12-21T11:06:36.108Z,993.30
2018-12-21T11:07:36.107Z,993.24
2018-12-21T11:08:36.071Z,993.23
2018-12-21T11:09:36.069Z,993.18
2018-12-21T11:10:36.050Z,993.15
2018-12-21T11:11:36.038Z,993.09
2018-12-21T11:12:36.027Z,993.04
2018-12-21T11:13:36.029Z,993.02
2018-12-21T11:14:36.008Z,992.96
2018-12-21T11:15:35.996Z,992.90
2018-12-21T11:16:35.980Z,992.91
2018-12-21T11:17:35.977Z,992.90
2018-12-21T11:18:35.989Z,992.86
2018-12-21T11:19:35.956Z,992.89
2018-12-21T11:20:35.935Z,992.85
2018-12-21T11:21:35.946Z,992.82
2018-12-21T11:22:35.914Z,992.80
2018-12-21T11:23:35.903Z,992.82
2018-12-21T11:24:35.955Z,992.79
2018-12-21T11:25:35.881Z,992.80
2018-12-21T11:26:35.871Z,992.79
2018-12-21T11:27:35.866Z,992.79
2018-12-21T11:28:35.847Z,992.76
2018-12-21T11:29:35.859Z,992.71
2018-12-21T11:30:35.824Z,992.70
2018-12-21T11:31:35.813Z,992.69
2018-12-21T11:32:35.804Z,992.67
2018-12-21T11:33:35.799Z,992.64
2018-12-21T11:34:35.779Z,992.61
2018-12-21T11:35:35.781Z,992.58
2018-12-21T11:36:35.758Z,992.53
2018-12-21T11:37:35.744Z,992.49
2018-12-21T11:38:35.735Z,992.42
2018-12-21T11:39:35.773Z,992.38
2018-12-21T11:40:35.722Z,992.31
2018-12-21T11:41:35.702Z,992.31
2018-12-21T11:42:35.689Z,992.30
2018-12-21T11:43:35.680Z,992.22
2018-12-21T11:44:35.669Z,992.23
2018-12-21T11:45:35.685Z,992.16
2018-12-21T11:46:35.644Z,992.15
2018-12-21T11:47:35.636Z,992.12
2018-12-21T11:48:35.623Z,992.10
2018-12-21T11:49:35.612Z,992.03
2018-12-21T11:50:35.601Z,992.08
2018-12-21T11:51:35.643Z,992.03
2018-12-21T11:52:35.578Z,991.96
2018-12-21T11:53:35.567Z,991.94
2018-12-21T11:54:43.880Z,991.96
2018-12-21T11:55:36.543Z,991.91
2018-12-21T11:56:35.532Z,991.88
2018-12-21T11:57:35.543Z,991.84
2018-12-21T11:58:35.520Z,991.78
2018-12-21T11:59:35.498Z,991.78
2018-12-21T12:00:35.488Z,991.74
2018-12-21T12:01:35.479Z,991.73
2018-12-21T12:02:35.498Z,991.67
2018-12-21T12:03:35.454Z,991.61
2018-12-21T12:04:35.450Z,991.58
2018-12-21T12:05:35.435Z,991.61
2018-12-21T12:06:35.420Z,991.55
2018-12-21T12:07:35.410Z,991.49
2018-12-21T12:08:35.412Z,991.43
2018-12-21T12:09:35.389Z,991.48
2018-12-21T12:10:35.381Z,991.45
2018-12-21T12:11:35.367Z,991.39
2018-12-21T12:12:35.366Z,991.41
2018-12-21T12:13:35.374Z,991.42
2018-12-21T12:14:35.339Z,991.32
2018-12-21T12:15:35.321Z,991.28
2018-12-21T12:16:35.313Z,991.27
2018-12-21T12:17:35.299Z,991.29